Terminal Aerodrome Forecast
Issued by NWS Mt. Holly, NJ

Home | Current Version | Previous Version | Text Only | Print | Product List | Glossary On
Versions: 1 2 3 4 5 6 7 8 9 10 11 12 13 14 15 16 17 18 19 20 21
000
FTUS41 KPHI 010500
TAFABE
TAF
KABE 010520Z 0106/0206 03010KT P6SM OVC040
      TEMPO 0106/0110 5SM -SHRA OVC020
     FM011000 35008G16KT P6SM VCSH OVC025
     FM011800 35012G20KT P6SM OVC035
     FM020000 34014G24KT P6SM OVC050=

USA.gov is the U.S. government's official web portal to all federal, state and local government web resources and services.